sensor_id;sensor_type;location;lat;lon;timestamp;pressure;altitude;pressure_sealevel;temperature;humidity
74659;BME280;63186;51.204;6.536;2023-11-19T00:00:15;100516.84;;;10.57;100.00
74659;BME280;63186;51.204;6.536;2023-11-19T00:02:41;100541.16;;;10.64;100.00
74659;BME280;63186;51.204;6.536;2023-11-19T00:05:08;100546.22;;;10.71;100.00
74659;BME280;63186;51.204;6.536;2023-11-19T00:07:42;100544.94;;;10.77;100.00
74659;BME280;63186;51.204;6.536;2023-11-19T00:10:12;100547.88;;;10.80;100.00
74659;BME280;63186;51.204;6.536;2023-11-19T00:12:48;100537.38;;;10.82;100.00
74659;BME280;63186;51.204;6.536;2023-11-19T00:15:14;100527.78;;;10.80;100.00
74659;BME280;63186;51.204;6.536;2023-11-19T00:17:41;100541.41;;;10.85;100.00
74659;BME280;63186;51.204;6.536;2023-11-19T00:20:11;100547.72;;;10.85;100.00
74659;BME280;63186;51.204;6.536;2023-11-19T00:22:37;100553.44;;;10.89;100.00
74659;BME280;63186;51.204;6.536;2023-11-19T00:25:02;100551.66;;;10.93;100.00
74659;BME280;63186;51.204;6.536;2023-11-19T00:27:28;100547.75;;;10.94;100.00
74659;BME280;63186;51.204;6.536;2023-11-19T00:29:54;100550.03;;;11.01;100.00
74659;BME280;63186;51.204;6.536;2023-11-19T00:32:19;100539.03;;;11.01;100.00
74659;BME280;63186;51.204;6.536;2023-11-19T00:34:44;100544.72;;;11.04;100.00
74659;BME280;63186;51.204;6.536;2023-11-19T00:37:10;100535.00;;;11.07;100.00
74659;BME280;63186;51.204;6.536;2023-11-19T00:39:35;100541.50;;;11.11;100.00
74659;BME280;63186;51.204;6.536;2023-11-19T00:42:00;100537.47;;;11.08;100.00
74659;BME280;63186;51.204;6.536;2023-11-19T00:44:26;100544.59;;;11.09;100.00
74659;BME280;63186;51.204;6.536;2023-11-19T00:46:51;100541.50;;;11.11;100.00
74659;BME280;63186;51.204;6.536;2023-11-19T00:49:16;100539.06;;;11.09;100.00
74659;BME280;63186;51.204;6.536;2023-11-19T00:51:41;100542.63;;;11.10;100.00
74659;BME280;63186;51.204;6.536;2023-11-19T00:54:07;100536.00;;;11.11;100.00
74659;BME280;63186;51.204;6.536;2023-11-19T00:56:32;100519.13;;;11.12;100.00
74659;BME280;63186;51.204;6.536;2023-11-19T00:58:57;100517.38;;;11.17;100.00
74659;BME280;63186;51.204;6.536;2023-11-19T01:01:22;100524.50;;;11.18;100.00
74659;BME280;63186;51.204;6.536;2023-11-19T01:03:48;100522.56;;;11.18;100.00
74659;BME280;63186;51.204;6.536;2023-11-19T01:06:13;100521.41;;;11.19;100.00
74659;BME280;63186;51.204;6.536;2023-11-19T01:08:42;100509.78;;;11.22;100.00
74659;BME280;63186;51.204;6.536;2023-11-19T01:11:08;100518.84;;;11.23;100.00
74659;BME280;63186;51.204;6.536;2023-11-19T01:13:33;100525.31;;;11.18;100.00
74659;BME280;63186;51.204;6.536;2023-11-19T01:15:58;100520.94;;;11.17;100.00
74659;BME280;63186;51.204;6.536;2023-11-19T01:18:24;100515.75;;;11.16;100.00
74659;BME280;63186;51.204;6.536;2023-11-19T01:20:49;100516.56;;;11.16;100.00
74659;BME280;63186;51.204;6.536;2023-11-19T01:23:14;100521.91;;;11.21;100.00
74659;BME280;63186;51.204;6.536;2023-11-19T01:25:39;100517.53;;;11.20;100.00
74659;BME280;63186;51.204;6.536;2023-11-19T01:28:05;100519.81;;;11.27;100.00
74659;BME280;63186;51.204;6.536;2023-11-19T01:30:30;100523.84;;;11.21;100.00
74659;BME280;63186;51.204;6.536;2023-11-19T01:32:56;100531.50;;;11.24;100.00
74659;BME280;63186;51.204;6.536;2023-11-19T01:35:21;100524.19;;;11.19;100.00
74659;BME280;63186;51.204;6.536;2023-11-19T01:37:48;100532.28;;;11.16;100.00
74659;BME280;63186;51.204;6.536;2023-11-19T01:40:13;100537.63;;;11.12;100.00
74659;BME280;63186;51.204;6.536;2023-11-19T01:42:38;100518.19;;;11.08;100.00
74659;BME280;63186;51.204;6.536;2023-11-19T01:45:04;100518.66;;;11.10;100.00
74659;BME280;63186;51.204;6.536;2023-11-19T01:47:33;100514.44;;;11.13;100.00
74659;BME280;63186;51.204;6.536;2023-11-19T01:49:58;100523.22;;;11.15;100.00
74659;BME280;63186;51.204;6.536;2023-11-19T01:52:25;100530.63;;;11.14;100.00
74659;BME280;63186;51.204;6.536;2023-11-19T01:54:52;100526.59;;;11.12;100.00
74659;BME280;63186;51.204;6.536;2023-11-19T01:57:18;100520.28;;;11.11;100.00
74659;BME280;63186;51.204;6.536;2023-11-19T01:59:44;100521.28;;;11.16;100.00
74659;BME280;63186;51.204;6.536;2023-11-19T02:02:10;100536.66;;;11.17;100.00
74659;BME280;63186;51.204;6.536;2023-11-19T02:04:37;100523.22;;;11.24;100.00
74659;BME280;63186;51.204;6.536;2023-11-19T02:07:03;100525.31;;;11.27;100.00
74659;BME280;63186;51.204;6.536;2023-11-19T02:09:29;100512.53;;;11.22;100.00
74659;BME280;63186;51.204;6.536;2023-11-19T02:11:55;100508.31;;;11.25;100.00
74659;BME280;63186;51.204;6.536;2023-11-19T02:14:24;100498.09;;;11.25;100.00
74659;BME280;63186;51.204;6.536;2023-11-19T02:16:51;100484.00;;;11.27;100.00
74659;BME280;63186;51.204;6.536;2023-11-19T02:19:19;100476.56;;;11.36;100.00
74659;BME280;63186;51.204;6.536;2023-11-19T02:21:44;100471.19;;;11.39;100.00
74659;BME280;63186;51.204;6.536;2023-11-19T02:24:11;100459.38;;;11.39;100.00
74659;BME280;63186;51.204;6.536;2023-11-19T02:27:02;100452.09;;;11.43;100.00
74659;BME280;63186;51.204;6.536;2023-11-19T02:29:33;100463.44;;;11.41;100.00
74659;BME280;63186;51.204;6.536;2023-11-19T02:32:00;100463.91;;;11.35;100.00
74659;BME280;63186;51.204;6.536;2023-11-19T02:34:25;100456.28;;;11.23;100.00
74659;BME280;63186;51.204;6.536;2023-11-19T02:36:50;100460.94;;;11.14;100.00
74659;BME280;63186;51.204;6.536;2023-11-19T02:39:15;100460.63;;;11.07;100.00
74659;BME280;63186;51.204;6.536;2023-11-19T02:41:46;100461.09;;;11.00;100.00
74659;BME280;63186;51.204;6.536;2023-11-19T02:44:12;100459.63;;;10.94;100.00
74659;BME280;63186;51.204;6.536;2023-11-19T02:46:38;100471.28;;;10.91;100.00
74659;BME280;63186;51.204;6.536;2023-11-19T02:49:04;100461.44;;;10.99;100.00
74659;BME280;63186;51.204;6.536;2023-11-19T02:51:29;100471.97;;;11.14;100.00
74659;BME280;63186;51.204;6.536;2023-11-19T02:53:55;100453.03;;;11.21;100.00
74659;BME280;63186;51.204;6.536;2023-11-19T02:56:20;100444.13;;;11.24;100.00
74659;BME280;63186;51.204;6.536;2023-11-19T02:58:51;100455.16;;;11.33;100.00
74659;BME280;63186;51.204;6.536;2023-11-19T03:01:25;100459.53;;;11.34;100.00
74659;BME280;63186;51.204;6.536;2023-11-19T03:03:59;100442.97;;;11.34;100.00
74659;BME280;63186;51.204;6.536;2023-11-19T03:06:27;100450.47;;;11.42;100.00
74659;BME280;63186;51.204;6.536;2023-11-19T03:08:54;100439.09;;;11.44;100.00
74659;BME280;63186;51.204;6.536;2023-11-19T03:11:20;100426.13;;;11.44;100.00
74659;BME280;63186;51.204;6.536;2023-11-19T03:13:46;100440.59;;;11.41;100.00
74659;BME280;63186;51.204;6.536;2023-11-19T03:16:12;100439.41;;;11.33;100.00
74659;BME280;63186;51.204;6.536;2023-11-19T03:18:37;100451.41;;;11.46;100.00
74659;BME280;63186;51.204;6.536;2023-11-19T03:21:04;100440.09;;;11.48;100.00
74659;BME280;63186;51.204;6.536;2023-11-19T03:23:30;100435.53;;;11.43;100.00
74659;BME280;63186;51.204;6.536;2023-11-19T03:25:56;100441.88;;;11.44;100.00
74659;BME280;63186;51.204;6.536;2023-11-19T03:28:22;100434.72;;;11.51;100.00
74659;BME280;63186;51.204;6.536;2023-11-19T03:30:47;100429.88;;;11.57;100.00
74659;BME280;63186;51.204;6.536;2023-11-19T03:33:12;100445.59;;;11.56;100.00
74659;BME280;63186;51.204;6.536;2023-11-19T03:35:37;100447.69;;;11.51;100.00
74659;BME280;63186;51.204;6.536;2023-11-19T03:38:03;100452.22;;;11.47;100.00
74659;BME280;63186;51.204;6.536;2023-11-19T03:40:28;100434.56;;;11.39;100.00
74659;BME280;63186;51.204;6.536;2023-11-19T03:42:56;100435.72;;;11.29;100.00
74659;BME280;63186;51.204;6.536;2023-11-19T03:45:22;100452.06;;;11.26;100.00
74659;BME280;63186;51.204;6.536;2023-11-19T03:47:47;100465.34;;;11.24;100.00
74659;BME280;63186;51.204;6.536;2023-11-19T03:50:15;100466.16;;;11.24;100.00
74659;BME280;63186;51.204;6.536;2023-11-19T03:52:41;100463.22;;;11.21;100.00
74659;BME280;63186;51.204;6.536;2023-11-19T03:55:06;100455.91;;;11.07;100.00
74659;BME280;63186;51.204;6.536;2023-11-19T03:57:33;100455.59;;;11.00;100.00
74659;BME280;63186;51.204;6.536;2023-11-19T03:59:58;100453.63;;;11.01;100.00
74659;BME280;63186;51.204;6.536;2023-11-19T04:02:24;100453.50;;;10.97;100.00
74659;BME280;63186;51.204;6.536;2023-11-19T04:04:53;100450.69;;;10.88;100.00
74659;BME280;63186;51.204;6.536;2023-11-19T04:07:18;100454.09;;;10.85;100.00
74659;BME280;63186;51.204;6.536;2023-11-19T04:09:43;100460.22;;;10.74;100.00
74659;BME280;63186;51.204;6.536;2023-11-19T04:12:09;100441.75;;;10.66;100.00
74659;BME280;63186;51.204;6.536;2023-11-19T04:14:36;100435.56;;;10.60;100.00
74659;BME280;63186;51.204;6.536;2023-11-19T04:17:01;100447.25;;;10.66;100.00
74659;BME280;63186;51.204;6.536;2023-11-19T04:19:26;100456.63;;;10.65;100.00
74659;BME280;63186;51.204;6.536;2023-11-19T04:21:51;100470.22;;;10.61;100.00
74659;BME280;63186;51.204;6.536;2023-11-19T04:24:17;100471.34;;;10.60;100.00
74659;BME280;63186;51.204;6.536;2023-11-19T04:26:43;100463.41;;;10.58;100.00
74659;BME280;63186;51.204;6.536;2023-11-19T04:29:11;100452.69;;;10.48;100.00
74659;BME280;63186;51.204;6.536;2023-11-19T04:31:37;100471.00;;;10.53;100.00
74659;BME280;63186;51.204;6.536;2023-11-19T04:34:02;100476.19;;;10.54;100.00
74659;BME280;63186;51.204;6.536;2023-11-19T04:36:27;100466.94;;;10.50;100.00
74659;BME280;63186;51.204;6.536;2023-11-19T04:38:53;100463.22;;;10.55;100.00
74659;BME280;63186;51.204;6.536;2023-11-19T04:41:18;100469.53;;;10.55;100.00
74659;BME280;63186;51.204;6.536;2023-11-19T04:43:44;100463.91;;;10.60;100.00
74659;BME280;63186;51.204;6.536;2023-11-19T04:46:09;100449.69;;;10.67;100.00
74659;BME280;63186;51.204;6.536;2023-11-19T04:48:35;100438.19;;;10.74;100.00
74659;BME280;63186;51.204;6.536;2023-11-19T04:51:00;100446.50;;;10.82;100.00
74659;BME280;63186;51.204;6.536;2023-11-19T04:53:25;100445.97;;;10.72;100.00
74659;BME280;63186;51.204;6.536;2023-11-19T04:55:53;100459.25;;;10.70;100.00
74659;BME280;63186;51.204;6.536;2023-11-19T04:58:19;100463.44;;;10.67;100.00
74659;BME280;63186;51.204;6.536;2023-11-19T05:00:44;100461.00;;;10.66;100.00
74659;BME280;63186;51.204;6.536;2023-11-19T05:03:10;100458.25;;;10.66;100.00
74659;BME280;63186;51.204;6.536;2023-11-19T05:05:36;100455.50;;;10.66;100.00
74659;BME280;63186;51.204;6.536;2023-11-19T05:08:01;100461.50;;;10.68;100.00
74659;BME280;63186;51.204;6.536;2023-11-19T05:10:26;100466.69;;;10.69;100.00
74659;BME280;63186;51.204;6.536;2023-11-19T05:12:52;100464.72;;;10.61;100.00
74659;BME280;63186;51.204;6.536;2023-11-19T05:15:17;100467.19;;;10.71;100.00
74659;BME280;63186;51.204;6.536;2023-11-19T05:17:42;100476.59;;;10.70;100.00
74659;BME280;63186;51.204;6.536;2023-11-19T05:20:08;100465.03;;;10.59;100.00
74659;BME280;63186;51.204;6.536;2023-11-19T05:22:41;100470.88;;;10.58;100.00
74659;BME280;63186;51.204;6.536;2023-11-19T05:25:07;100478.78;;;10.51;100.00
74659;BME280;63186;51.204;6.536;2023-11-19T05:27:34;100473.28;;;10.59;100.00
74659;BME280;63186;51.204;6.536;2023-11-19T05:30:00;100486.91;;;10.65;100.00
74659;BME280;63186;51.204;6.536;2023-11-19T05:32:25;100494.19;;;10.69;100.00
74659;BME280;63186;51.204;6.536;2023-11-19T05:34:50;100492.78;;;10.80;100.00
74659;BME280;63186;51.204;6.536;2023-11-19T05:37:16;100493.94;;;10.79;100.00
74659;BME280;63186;51.204;6.536;2023-11-19T05:39:41;100493.47;;;10.86;100.00
74659;BME280;63186;51.204;6.536;2023-11-19T05:42:06;100501.09;;;10.89;100.00
74659;BME280;63186;51.204;6.536;2023-11-19T05:44:32;100485.69;;;10.88;100.00
74659;BME280;63186;51.204;6.536;2023-11-19T05:46:57;100490.72;;;10.86;100.00
74659;BME280;63186;51.204;6.536;2023-11-19T05:49:22;100487.63;;;10.79;100.00
74659;BME280;63186;51.204;6.536;2023-11-19T05:51:47;100499.22;;;10.67;100.00
74659;BME280;63186;51.204;6.536;2023-11-19T05:54:13;100503.75;;;10.63;100.00
74659;BME280;63186;51.204;6.536;2023-11-19T05:56:38;100502.31;;;10.66;100.00
74659;BME280;63186;51.204;6.536;2023-11-19T05:59:04;100494.03;;;10.66;100.00
74659;BME280;63186;51.204;6.536;2023-11-19T06:01:34;100507.31;;;10.64;100.00
74659;BME280;63186;51.204;6.536;2023-11-19T06:03:59;100518.47;;;10.58;100.00
74659;BME280;63186;51.204;6.536;2023-11-19T06:06:26;100506.28;;;10.51;100.00
74659;BME280;63186;51.204;6.536;2023-11-19T06:08:51;100509.34;;;10.49;100.00
74659;BME280;63186;51.204;6.536;2023-11-19T06:11:16;100523.94;;;10.50;100.00
74659;BME280;63186;51.204;6.536;2023-11-19T06:13:45;100517.88;;;10.39;100.00
74659;BME280;63186;51.204;6.536;2023-11-19T06:16:11;100516.06;;;10.35;100.00
74659;BME280;63186;51.204;6.536;2023-11-19T06:18:37;100522.69;;;10.33;100.00
74659;BME280;63186;51.204;6.536;2023-11-19T06:21:02;100515.44;;;10.38;100.00
74659;BME280;63186;51.204;6.536;2023-11-19T06:23:28;100516.44;;;10.42;100.00
74659;BME280;63186;51.204;6.536;2023-11-19T06:25:53;100509.13;;;10.37;100.00
74659;BME280;63186;51.204;6.536;2023-11-19T06:28:18;100515.25;;;10.34;100.00
74659;BME280;63186;51.204;6.536;2023-11-19T06:30:44;100513.28;;;10.26;100.00
74659;BME280;63186;51.204;6.536;2023-11-19T06:33:12;100504.78;;;10.22;100.00
74659;BME280;63186;51.204;6.536;2023-11-19T06:35:38;100511.88;;;10.15;100.00
74659;BME280;63186;51.204;6.536;2023-11-19T06:38:03;100507.81;;;10.12;100.00
74659;BME280;63186;51.204;6.536;2023-11-19T06:40:30;100528.88;;;10.17;100.00
74659;BME280;63186;51.204;6.536;2023-11-19T06:42:55;100525.91;;;10.04;100.00
74659;BME280;63186;51.204;6.536;2023-11-19T06:45:21;100527.97;;;9.99;100.00
74659;BME280;63186;51.204;6.536;2023-11-19T06:47:47;100521.00;;;10.01;100.00
74659;BME280;63186;51.204;6.536;2023-11-19T06:50:12;100526.81;;;10.00;100.00
74659;BME280;63186;51.204;6.536;2023-11-19T06:52:37;100526.13;;;9.94;100.00
74659;BME280;63186;51.204;6.536;2023-11-19T06:55:03;100526.56;;;9.88;100.00
74659;BME280;63186;51.204;6.536;2023-11-19T06:57:29;100526.19;;;9.81;100.00
74659;BME280;63186;51.204;6.536;2023-11-19T06:59:57;100522.16;;;9.78;100.00
74659;BME280;63186;51.204;6.536;2023-11-19T07:02:22;100528.56;;;9.73;100.00
74659;BME280;63186;51.204;6.536;2023-11-19T07:04:47;100539.13;;;9.80;100.00
74659;BME280;63186;51.204;6.536;2023-11-19T07:07:13;100541.25;;;9.83;100.00
74659;BME280;63186;51.204;6.536;2023-11-19T07:09:40;100547.69;;;9.78;100.00
74659;BME280;63186;51.204;6.536;2023-11-19T07:12:05;100544.94;;;9.78;100.00
74659;BME280;63186;51.204;6.536;2023-11-19T07:14:31;100548.19;;;9.81;100.00
74659;BME280;63186;51.204;6.536;2023-11-19T07:16:56;100550.88;;;9.94;100.00
74659;BME280;63186;51.204;6.536;2023-11-19T07:19:21;100535.88;;;10.00;100.00
74659;BME280;63186;51.204;6.536;2023-11-19T07:21:46;100539.66;;;10.04;100.00
74659;BME280;63186;51.204;6.536;2023-11-19T07:24:12;100538.53;;;10.05;100.00
74659;BME280;63186;51.204;6.536;2023-11-19T07:26:44;100533.19;;;10.09;100.00
74659;BME280;63186;51.204;6.536;2023-11-19T07:29:09;100532.63;;;10.21;100.00
74659;BME280;63186;51.204;6.536;2023-11-19T07:31:34;100528.06;;;10.39;100.00
74659;BME280;63186;51.204;6.536;2023-11-19T07:34:00;100533.00;;;10.50;100.00
74659;BME280;63186;51.204;6.536;2023-11-19T07:36:25;100538.97;;;10.44;100.00
74659;BME280;63186;51.204;6.536;2023-11-19T07:38:50;100547.94;;;10.36;100.00
74659;BME280;63186;51.204;6.536;2023-11-19T07:41:15;100553.97;;;10.38;100.00
74659;BME280;63186;51.204;6.536;2023-11-19T07:43:43;100544.75;;;10.42;100.00
74659;BME280;63186;51.204;6.536;2023-11-19T07:46:13;100554.78;;;10.38;100.00
74659;BME280;63186;51.204;6.536;2023-11-19T07:48:41;100557.22;;;10.40;100.00
74659;BME280;63186;51.204;6.536;2023-11-19T07:51:07;100545.66;;;10.29;100.00
74659;BME280;63186;51.204;6.536;2023-11-19T07:53:32;100560.97;;;10.44;100.00
74659;BME280;63186;51.204;6.536;2023-11-19T07:55:58;100562.59;;;10.45;100.00
74659;BME280;63186;51.204;6.536;2023-11-19T07:58:25;100572.63;;;10.49;100.00
74659;BME280;63186;51.204;6.536;2023-11-19T08:00:50;100574.13;;;10.55;100.00
74659;BME280;63186;51.204;6.536;2023-11-19T08:03:16;100579.38;;;10.66;100.00
74659;BME280;63186;51.204;6.536;2023-11-19T08:05:41;100583.44;;;10.68;100.00
74659;BME280;63186;51.204;6.536;2023-11-19T08:08:06;100587.22;;;10.81;100.00
74659;BME280;63186;51.204;6.536;2023-11-19T08:10:32;100578.38;;;10.93;100.00
74659;BME280;63186;51.204;6.536;2023-11-19T08:12:58;100588.00;;;11.04;100.00
74659;BME280;63186;51.204;6.536;2023-11-19T08:15:23;100596.13;;;11.09;100.00
74659;BME280;63186;51.204;6.536;2023-11-19T08:17:49;100600.66;;;11.13;100.00
74659;BME280;63186;51.204;6.536;2023-11-19T08:20:14;100604.56;;;11.21;100.00
74659;BME280;63186;51.204;6.536;2023-11-19T08:22:40;100625.84;;;11.29;100.00
74659;BME280;63186;51.204;6.536;2023-11-19T08:25:05;100616.97;;;11.41;100.00
74659;BME280;63186;51.204;6.536;2023-11-19T08:27:31;100606.91;;;11.45;100.00
74659;BME280;63186;51.204;6.536;2023-11-19T08:29:57;100608.53;;;11.46;100.00
74659;BME280;63186;51.204;6.536;2023-11-19T08:32:23;100599.97;;;11.56;100.00
74659;BME280;63186;51.204;6.536;2023-11-19T08:34:49;100611.66;;;11.62;100.00
74659;BME280;63186;51.204;6.536;2023-11-19T08:37:14;100610.88;;;11.79;100.00
74659;BME280;63186;51.204;6.536;2023-11-19T08:39:40;100618.22;;;12.18;100.00
74659;BME280;63186;51.204;6.536;2023-11-19T08:42:07;100614.19;;;12.97;100.00
74659;BME280;63186;51.204;6.536;2023-11-19T08:44:32;100623.88;;;13.79;100.00
74659;BME280;63186;51.204;6.536;2023-11-19T08:46:57;100609.47;;;14.16;99.47
74659;BME280;63186;51.204;6.536;2023-11-19T08:49:22;100604.03;;;14.19;97.25
74659;BME280;63186;51.204;6.536;2023-11-19T08:51:48;100627.50;;;14.34;99.00
74659;BME280;63186;51.204;6.536;2023-11-19T08:54:13;100618.09;;;14.35;95.13
74659;BME280;63186;51.204;6.536;2023-11-19T08:56:39;100617.16;;;14.10;96.51
74659;BME280;63186;51.204;6.536;2023-11-19T08:59:05;100630.38;;;14.04;97.09
74659;BME280;63186;51.204;6.536;2023-11-19T09:01:30;100634.91;;;14.51;94.63
74659;BME280;63186;51.204;6.536;2023-11-19T09:03:55;100622.44;;;14.90;90.83
74659;BME280;63186;51.204;6.536;2023-11-19T09:06:21;100626.72;;;14.87;90.83
74659;BME280;63186;51.204;6.536;2023-11-19T09:08:46;100623.47;;;14.98;89.96
74659;BME280;63186;51.204;6.536;2023-11-19T09:11:11;100622.81;;;15.01;90.49
74659;BME280;63186;51.204;6.536;2023-11-19T09:13:37;100635.59;;;14.93;88.42
74659;BME280;63186;51.204;6.536;2023-11-19T09:16:02;100636.75;;;14.92;92.49
74659;BME280;63186;51.204;6.536;2023-11-19T09:18:31;100620.81;;;14.89;87.45
74659;BME280;63186;51.204;6.536;2023-11-19T09:20:57;100622.56;;;15.06;89.03
74659;BME280;63186;51.204;6.536;2023-11-19T09:23:23;100621.56;;;15.35;86.57
74659;BME280;63186;51.204;6.536;2023-11-19T09:25:50;100620.97;;;14.59;88.16
74659;BME280;63186;51.204;6.536;2023-11-19T09:28:15;100618.06;;;14.56;92.96
74659;BME280;63186;51.204;6.536;2023-11-19T09:30:40;100628.53;;;14.83;92.34
74659;BME280;63186;51.204;6.536;2023-11-19T09:33:05;100621.13;;;14.00;94.13
74659;BME280;63186;51.204;6.536;2023-11-19T09:35:31;100617.22;;;14.22;92.14
74659;BME280;63186;51.204;6.536;2023-11-19T09:37:56;100624.06;;;15.03;90.23
74659;BME280;63186;51.204;6.536;2023-11-19T09:40:21;100629.72;;;14.95;88.63
74659;BME280;63186;51.204;6.536;2023-11-19T09:42:47;100602.22;;;14.89;84.98
74659;BME280;63186;51.204;6.536;2023-11-19T09:45:14;100627.78;;;15.07;87.95
74659;BME280;63186;51.204;6.536;2023-11-19T09:47:43;100626.38;;;15.01;85.64
74659;BME280;63186;51.204;6.536;2023-11-19T09:50:10;100620.44;;;14.78;86.09
74659;BME280;63186;51.204;6.536;2023-11-19T09:52:39;100619.44;;;13.87;91.91
74659;BME280;63186;51.204;6.536;2023-11-19T09:55:04;100612.53;;;13.43;95.95
74659;BME280;63186;51.204;6.536;2023-11-19T09:57:30;100612.78;;;13.29;97.08
74659;BME280;63186;51.204;6.536;2023-11-19T09:59:57;100605.59;;;12.90;98.96
74659;BME280;63186;51.204;6.536;2023-11-19T10:02:23;100606.22;;;12.95;99.58
74659;BME280;63186;51.204;6.536;2023-11-19T10:04:49;100605.16;;;13.55;97.34
74659;BME280;63186;51.204;6.536;2023-11-19T10:07:16;100611.38;;;13.73;94.12
74659;BME280;63186;51.204;6.536;2023-11-19T10:09:41;100609.13;;;14.83;92.76
74659;BME280;63186;51.204;6.536;2023-11-19T10:12:06;100615.56;;;15.33;87.36
74659;BME280;63186;51.204;6.536;2023-11-19T10:14:32;100614.25;;;15.18;86.52
74659;BME280;63186;51.204;6.536;2023-11-19T10:17:01;100604.44;;;15.08;86.98
74659;BME280;63186;51.204;6.536;2023-11-19T10:19:29;100612.63;;;15.05;87.02
74659;BME280;63186;51.204;6.536;2023-11-19T10:21:54;100606.53;;;15.24;85.51
74659;BME280;63186;51.204;6.536;2023-11-19T10:24:32;100614.38;;;14.97;87.98
74659;BME280;63186;51.204;6.536;2023-11-19T10:26:59;100601.75;;;14.00;91.14
74659;BME280;63186;51.204;6.536;2023-11-19T10:29:24;100592.06;;;13.44;94.42
74659;BME280;63186;51.204;6.536;2023-11-19T10:31:56;100595.41;;;13.20;96.55
74659;BME280;63186;51.204;6.536;2023-11-19T10:34:26;100593.59;;;12.86;96.39
74659;BME280;63186;51.204;6.536;2023-11-19T10:36:52;100603.06;;;12.67;97.56
74659;BME280;63186;51.204;6.536;2023-11-19T10:39:18;100602.91;;;12.72;97.95
74659;BME280;63186;51.204;6.536;2023-11-19T10:41:43;100600.56;;;12.92;98.40
74659;BME280;63186;51.204;6.536;2023-11-19T10:44:09;100587.06;;;12.90;96.31
74659;BME280;63186;51.204;6.536;2023-11-19T10:46:41;100610.81;;;12.91;95.97
74659;BME280;63186;51.204;6.536;2023-11-19T10:49:09;100604.16;;;12.84;96.10
74659;BME280;63186;51.204;6.536;2023-11-19T10:51:34;100599.94;;;12.86;98.53
74659;BME280;63186;51.204;6.536;2023-11-19T10:54:03;100604.34;;;12.79;96.17
74659;BME280;63186;51.204;6.536;2023-11-19T10:56:32;100600.91;;;12.82;97.47
74659;BME280;63186;51.204;6.536;2023-11-19T10:58:59;100604.34;;;12.79;97.15
74659;BME280;63186;51.204;6.536;2023-11-19T11:01:28;100591.19;;;12.75;96.34
74659;BME280;63186;51.204;6.536;2023-11-19T11:03:59;100595.75;;;12.63;96.32
74659;BME280;63186;51.204;6.536;2023-11-19T11:06:26;100601.47;;;12.49;95.99
74659;BME280;63186;51.204;6.536;2023-11-19T11:08:51;100608.59;;;12.67;98.54
74659;BME280;63186;51.204;6.536;2023-11-19T11:11:17;100597.28;;;12.98;95.87
74659;BME280;63186;51.204;6.536;2023-11-19T11:13:47;100599.75;;;13.29;93.02
74659;BME280;63186;51.204;6.536;2023-11-19T11:16:13;100613.69;;;13.42;94.32
74659;BME280;63186;51.204;6.536;2023-11-19T11:18:39;100595.00;;;13.39;94.03
74659;BME280;63186;51.204;6.536;2023-11-19T11:21:10;100594.06;;;13.35;94.68
74659;BME280;63186;51.204;6.536;2023-11-19T11:29:04;100594.19;;;13.00;95.83
74659;BME280;63186;51.204;6.536;2023-11-19T11:31:52;100586.97;;;12.78;97.88
74659;BME280;63186;51.204;6.536;2023-11-19T11:37:07;100587.03;;;12.52;99.71
74659;BME280;63186;51.204;6.536;2023-11-19T11:39:36;100578.41;;;12.45;99.16
74659;BME280;63186;51.204;6.536;2023-11-19T11:45:04;100576.72;;;12.79;97.21
74659;BME280;63186;51.204;6.536;2023-11-19T11:50:11;100571.94;;;13.35;94.18
74659;BME280;63186;51.204;6.536;2023-11-19T11:57:49;100579.06;;;13.36;93.11
74659;BME280;63186;51.204;6.536;2023-11-19T12:00:21;100577.06;;;13.24;92.12
74659;BME280;63186;51.204;6.536;2023-11-19T12:02:48;100569.44;;;13.03;92.34
74659;BME280;63186;51.204;6.536;2023-11-19T12:05:14;100569.22;;;12.88;96.47
74659;BME280;63186;51.204;6.536;2023-11-19T12:07:39;100544.56;;;12.74;95.26
74659;BME280;63186;51.204;6.536;2023-11-19T12:10:09;100555.47;;;12.62;96.07
74659;BME280;63186;51.204;6.536;2023-11-19T12:12:37;100556.00;;;12.55;96.65
74659;BME280;63186;51.204;6.536;2023-11-19T12:15:07;100548.97;;;12.58;97.14
74659;BME280;63186;51.204;6.536;2023-11-19T12:20:05;100558.97;;;12.88;95.67
74659;BME280;63186;51.204;6.536;2023-11-19T12:22:37;100522.94;;;12.76;96.29
74659;BME280;63186;51.204;6.536;2023-11-19T12:25:04;100551.09;;;12.61;97.26
74659;BME280;63186;51.204;6.536;2023-11-19T12:27:30;100561.03;;;12.44;100.00
74659;BME280;63186;51.204;6.536;2023-11-19T12:29:55;100555.56;;;12.27;100.00
74659;BME280;63186;51.204;6.536;2023-11-19T12:32:22;100543.59;;;11.97;100.00
74659;BME280;63186;51.204;6.536;2023-11-19T12:34:47;100541.13;;;11.78;100.00
74659;BME280;63186;51.204;6.536;2023-11-19T12:37:13;100539.97;;;11.79;100.00
74659;BME280;63186;51.204;6.536;2023-11-19T12:39:38;100533.50;;;11.92;100.00
74659;BME280;63186;51.204;6.536;2023-11-19T12:42:05;100532.88;;;11.95;100.00
74659;BME280;63186;51.204;6.536;2023-11-19T12:44:30;100536.44;;;11.96;100.00
74659;BME280;63186;51.204;6.536;2023-11-19T12:47:03;100532.06;;;12.04;100.00
74659;BME280;63186;51.204;6.536;2023-11-19T12:49:29;100538.22;;;12.09;100.00
74659;BME280;63186;51.204;6.536;2023-11-19T12:51:54;100526.56;;;11.95;100.00
74659;BME280;63186;51.204;6.536;2023-11-19T12:54:20;100541.63;;;11.89;100.00
74659;BME280;63186;51.204;6.536;2023-11-19T12:56:52;100537.56;;;11.86;100.00
74659;BME280;63186;51.204;6.536;2023-11-19T12:59:18;100543.25;;;11.99;100.00